sensor_id;sensor_type;location;lat;lon;timestamp;pressure;altitude;pressure_sealevel;temperature
64296;BMP280;51082;38.236;15.432;2023-12-04T10:07:19;102136.06;;;19.80
64296;BMP280;51082;38.236;15.432;2023-12-04T10:08:22;102140.38;;;19.74
64296;BMP280;51082;38.236;15.432;2023-12-04T10:09:23;102136.13;;;19.73
64296;BMP280;51082;38.236;15.432;2023-12-04T10:10:26;102136.53;;;19.70
64296;BMP280;51082;38.236;15.432;2023-12-04T10:11:27;102138.16;;;19.71
64296;BMP280;51082;38.236;15.432;2023-12-04T10:12:31;102129.44;;;19.71
64296;BMP280;51082;38.236;15.432;2023-12-04T10:13:54;102128.78;;;19.76
64296;BMP280;51082;38.236;15.432;2023-12-04T10:15:05;102132.81;;;19.78
64296;BMP280;51082;38.236;15.432;2023-12-04T10:16:08;102128.78;;;19.76
64296;BMP280;51082;38.236;15.432;2023-12-04T10:17:16;102119.59;;;19.78
64296;BMP280;51082;38.236;15.432;2023-12-04T10:18:25;102125.94;;;19.77
64296;BMP280;51082;38.236;15.432;2023-12-04T10:19:28;102126.19;;;19.69
64296;BMP280;51082;38.236;15.432;2023-12-04T10:20:30;102119.31;;;19.68
64296;BMP280;51082;38.236;15.432;2023-12-04T10:21:33;102121.59;;;19.64
64296;BMP280;51082;38.236;15.432;2023-12-04T10:22:36;102115.69;;;19.62
64296;BMP280;51082;38.236;15.432;2023-12-04T10:23:41;102117.53;;;19.62
64296;BMP280;51082;38.236;15.432;2023-12-04T10:24:43;102115.69;;;19.62
64296;BMP280;51082;38.236;15.432;2023-12-04T10:25:45;102126.41;;;19.67
64296;BMP280;51082;38.236;15.432;2023-12-04T10:26:50;102115.03;;;19.67
64296;BMP280;51082;38.236;15.432;2023-12-04T10:27:52;102112.56;;;19.72
64296;BMP280;51082;38.236;15.432;2023-12-04T10:29:02;102122.25;;;19.78
64296;BMP280;51082;38.236;15.432;2023-12-04T10:30:04;102104.81;;;19.77
64296;BMP280;51082;38.236;15.432;2023-12-04T10:31:08;102105.81;;;19.76
64296;BMP280;51082;38.236;15.432;2023-12-04T10:32:09;102099.94;;;19.74
64296;BMP280;51082;38.236;15.432;2023-12-04T10:33:12;102106.28;;;19.73
64296;BMP280;51082;38.236;15.432;2023-12-04T10:34:15;102096.69;;;19.72
64296;BMP280;51082;38.236;15.432;2023-12-04T10:35:17;102106.31;;;19.66
64296;BMP280;51082;38.236;15.432;2023-12-04T10:36:19;102103.28;;;19.63
64296;BMP280;51082;38.236;15.432;2023-12-04T10:37:21;102099.66;;;19.64
64296;BMP280;51082;38.236;15.432;2023-12-04T10:38:25;102097.84;;;19.58
64296;BMP280;51082;38.236;15.432;2023-12-04T10:39:28;102099.75;;;19.51
64296;BMP280;51082;38.236;15.432;2023-12-04T10:40:31;102101.78;;;19.49
64296;BMP280;51082;38.236;15.432;2023-12-04T10:41:34;102100.16;;;19.48
64296;BMP280;51082;38.236;15.432;2023-12-04T10:42:35;102103.63;;;19.48
64296;BMP280;51082;38.236;15.432;2023-12-04T10:43:46;102109.28;;;19.52
64296;BMP280;51082;38.236;15.432;2023-12-04T10:44:48;102097.25;;;19.56
64296;BMP280;51082;38.236;15.432;2023-12-04T10:45:51;102101.09;;;19.60
64296;BMP280;51082;38.236;15.432;2023-12-04T10:46:56;102103.28;;;19.63
64296;BMP280;51082;38.236;15.432;2023-12-04T10:48:00;102083.78;;;19.64
64296;BMP280;51082;38.236;15.432;2023-12-04T10:49:03;102097.56;;;19.66
64296;BMP280;51082;38.236;15.432;2023-12-04T10:50:07;102089.09;;;19.64
64296;BMP280;51082;38.236;15.432;2023-12-04T10:51:08;102098.19;;;19.68
64296;BMP280;51082;38.236;15.432;2023-12-04T10:52:11;102086.84;;;19.61
64296;BMP280;51082;38.236;15.432;2023-12-04T10:53:15;102093.75;;;19.62
64296;BMP280;51082;38.236;15.432;2023-12-04T10:54:19;102086.28;;;19.59
64296;BMP280;51082;38.236;15.432;2023-12-04T10:55:20;102085.25;;;19.60
64296;BMP280;51082;38.236;15.432;2023-12-04T10:56:27;102082.84;;;19.52
64296;BMP280;51082;38.236;15.432;2023-12-04T10:57:35;102086.94;;;19.54
64296;BMP280;51082;38.236;15.432;2023-12-04T10:58:40;102082.22;;;19.56
64296;BMP280;51082;38.236;15.432;2023-12-04T10:59:43;102090.94;;;19.57
64296;BMP280;51082;38.236;15.432;2023-12-04T11:00:48;102079.16;;;19.59
64296;BMP280;51082;38.236;15.432;2023-12-04T11:01:51;102083.44;;;19.54
64296;BMP280;51082;38.236;15.432;2023-12-04T11:02:59;102084.28;;;19.54
64296;BMP280;51082;38.236;15.432;2023-12-04T11:04:06;102086.69;;;19.56
64296;BMP280;51082;38.236;15.432;2023-12-04T11:05:14;102084.63;;;19.58
64296;BMP280;51082;38.236;15.432;2023-12-04T11:06:20;102089.31;;;19.56
64296;BMP280;51082;38.236;15.432;2023-12-04T11:07:25;102078.63;;;19.51
64296;BMP280;51082;38.236;15.432;2023-12-04T11:08:29;102079.63;;;19.50
64296;BMP280;51082;38.236;15.432;2023-12-04T11:09:35;102084.28;;;19.54
64296;BMP280;51082;38.236;15.432;2023-12-04T11:10:41;102086.09;;;19.54
64296;BMP280;51082;38.236;15.432;2023-12-04T11:11:48;102075.91;;;19.57
64296;BMP280;51082;38.236;15.432;2023-12-04T11:12:57;102076.28;;;19.61
64296;BMP280;51082;38.236;15.432;2023-12-04T11:14:04;102075.06;;;19.63
64296;BMP280;51082;38.236;15.432;2023-12-04T11:15:07;102078.91;;;19.61
64296;BMP280;51082;38.236;15.432;2023-12-04T11:16:14;102076.88;;;19.63
64296;BMP280;51082;38.236;15.432;2023-12-04T11:17:19;102073.78;;;19.66
64296;BMP280;51082;38.236;15.432;2023-12-04T11:18:23;102074.81;;;19.65
64296;BMP280;51082;38.236;15.432;2023-12-04T11:19:29;102072.75;;;19.67
64296;BMP280;51082;38.236;15.432;2023-12-04T11:20:32;102071.75;;;19.68
64296;BMP280;51082;38.236;15.432;2023-12-04T11:21:37;102065.31;;;19.64
64296;BMP280;51082;38.236;15.432;2023-12-04T11:22:40;102063.50;;;19.58
64296;BMP280;51082;38.236;15.432;2023-12-04T11:23:43;102056.97;;;19.60
64296;BMP280;51082;38.236;15.432;2023-12-04T11:24:47;102061.22;;;19.61
64296;BMP280;51082;38.236;15.432;2023-12-04T11:25:50;102052.50;;;19.61
64296;BMP280;51082;38.236;15.432;2023-12-04T11:26:52;102050.66;;;19.61
64296;BMP280;51082;38.236;15.432;2023-12-04T11:27:55;102049.69;;;19.56
64296;BMP280;51082;38.236;15.432;2023-12-04T11:28:58;102058.22;;;19.58
64296;BMP280;51082;38.236;15.432;2023-12-04T11:30:00;102046.41;;;19.60
64296;BMP280;51082;38.236;15.432;2023-12-04T11:31:05;102046.81;;;19.64
64296;BMP280;51082;38.236;15.432;2023-12-04T11:32:13;102048.38;;;19.65
64296;BMP280;51082;38.236;15.432;2023-12-04T11:33:15;102039.69;;;19.64
64296;BMP280;51082;38.236;15.432;2023-12-04T11:34:17;102037.81;;;19.65
64296;BMP280;51082;38.236;15.432;2023-12-04T11:35:20;102037.22;;;19.63
64296;BMP280;51082;38.236;15.432;2023-12-04T11:36:22;102037.22;;;19.63
64296;BMP280;51082;38.236;15.432;2023-12-04T11:37:24;102039.28;;;19.61
64296;BMP280;51082;38.236;15.432;2023-12-04T11:38:27;102035.84;;;19.60
64296;BMP280;51082;38.236;15.432;2023-12-04T11:39:28;102031.34;;;19.61
64296;BMP280;51082;38.236;15.432;2023-12-04T11:40:33;102027.78;;;19.55
64296;BMP280;51082;38.236;15.432;2023-12-04T11:41:37;102029.38;;;19.56
64296;BMP280;51082;38.236;15.432;2023-12-04T11:42:42;102016.41;;;19.55
64296;BMP280;51082;38.236;15.432;2023-12-04T11:43:46;102017.59;;;19.59
64296;BMP280;51082;38.236;15.432;2023-12-04T11:44:49;102026.88;;;19.61
64296;BMP280;51082;38.236;15.432;2023-12-04T11:45:50;102026.66;;;19.63
64296;BMP280;51082;38.236;15.432;2023-12-04T11:46:56;102023.22;;;19.62
64296;BMP280;51082;38.236;15.432;2023-12-04T11:47:57;102024.03;;;19.63
64296;BMP280;51082;38.236;15.432;2023-12-04T11:49:26;102030.94;;;19.64
64296;BMP280;51082;38.236;15.432;2023-12-04T11:50:29;102031.50;;;19.66
64296;BMP280;51082;38.236;15.432;2023-12-04T11:51:46;102033.13;;;19.67
64296;BMP280;51082;38.236;15.432;2023-12-04T11:52:51;102029.47;;;19.68
64296;BMP280;51082;38.236;15.432;2023-12-04T11:53:54;102026.84;;;19.68
64296;BMP280;51082;38.236;15.432;2023-12-04T11:54:57;102025.78;;;19.69
64296;BMP280;51082;38.236;15.432;2023-12-04T11:56:08;102027.25;;;19.65
64296;BMP280;51082;38.236;15.432;2023-12-04T11:57:20;102028.88;;;19.66
64296;BMP280;51082;38.236;15.432;2023-12-04T11:58:23;102023.03;;;19.64
64296;BMP280;51082;38.236;15.432;2023-12-04T11:59:25;102026.47;;;19.64
64296;BMP280;51082;38.236;15.432;2023-12-04T12:00:27;102028.31;;;19.64
64296;BMP280;51082;38.236;15.432;2023-12-04T12:01:33;102027.69;;;19.62
64296;BMP280;51082;38.236;15.432;2023-12-04T12:02:34;102021.59;;;19.61
64296;BMP280;51082;38.236;15.432;2023-12-04T12:03:37;102022.22;;;19.63
64296;BMP280;51082;38.236;15.432;2023-12-04T12:04:39;102025.66;;;19.64
64296;BMP280;51082;38.236;15.432;2023-12-04T12:05:41;102029.91;;;19.65
64296;BMP280;51082;38.236;15.432;2023-12-04T12:06:43;102035.44;;;19.63
64296;BMP280;51082;38.236;15.432;2023-12-04T12:07:46;102033.13;;;19.67
64296;BMP280;51082;38.236;15.432;2023-12-04T12:08:48;102034.78;;;19.68
64296;BMP280;51082;38.236;15.432;2023-12-04T12:09:50;102023.16;;;19.69
64296;BMP280;51082;38.236;15.432;2023-12-04T12:10:53;102031.06;;;19.69
64296;BMP280;51082;38.236;15.432;2023-12-04T12:11:56;102023.38;;;19.67
64296;BMP280;51082;38.236;15.432;2023-12-04T12:12:59;102023.59;;;19.66
64296;BMP280;51082;38.236;15.432;2023-12-04T12:14:00;102019.91;;;19.67
64296;BMP280;51082;38.236;15.432;2023-12-04T12:15:04;102019.91;;;19.67
64296;BMP280;51082;38.236;15.432;2023-12-04T12:16:06;102022.22;;;19.63
64296;BMP280;51082;38.236;15.432;2023-12-04T12:17:09;102024.59;;;19.65
64296;BMP280;51082;38.236;15.432;2023-12-04T12:18:10;102021.19;;;19.64
64296;BMP280;51082;38.236;15.432;2023-12-04T12:19:13;102017.75;;;19.64
64296;BMP280;51082;38.236;15.432;2023-12-04T12:20:15;102019.31;;;19.65
64296;BMP280;51082;38.236;15.432;2023-12-04T12:21:17;102020.38;;;19.64
64296;BMP280;51082;38.236;15.432;2023-12-04T12:22:19;102016.69;;;19.65
64296;BMP280;51082;38.236;15.432;2023-12-04T12:23:22;102020.13;;;19.65
64296;BMP280;51082;38.236;15.432;2023-12-04T12:24:24;102011.84;;;19.62
64296;BMP280;51082;38.236;15.432;2023-12-04T12:25:27;102013.00;;;19.66
64296;BMP280;51082;38.236;15.432;2023-12-04T12:26:28;102015.44;;;19.67
64296;BMP280;51082;38.236;15.432;2023-12-04T12:27:33;102012.00;;;19.67
64296;BMP280;51082;38.236;15.432;2023-12-04T12:28:34;102005.34;;;19.64
64296;BMP280;51082;38.236;15.432;2023-12-04T12:29:37;102017.94;;;19.62
64296;BMP280;51082;38.236;15.432;2023-12-04T12:30:38;102010.22;;;19.61
64296;BMP280;51082;38.236;15.432;2023-12-04T12:31:43;102008.63;;;19.60
64296;BMP280;51082;38.236;15.432;2023-12-04T12:32:44;102014.69;;;19.60
64296;BMP280;51082;38.236;15.432;2023-12-04T12:33:47;102012.31;;;19.59
64296;BMP280;51082;38.236;15.432;2023-12-04T12:34:48;102012.31;;;19.59
64296;BMP280;51082;38.236;15.432;2023-12-04T12:35:51;102012.13;;;19.54
64296;BMP280;51082;38.236;15.432;2023-12-04T12:36:52;102008.97;;;19.45
64296;BMP280;51082;38.236;15.432;2023-12-04T12:37:55;102009.53;;;19.47
64296;BMP280;51082;38.236;15.432;2023-12-04T12:38:57;102015.63;;;19.48
64296;BMP280;51082;38.236;15.432;2023-12-04T12:39:59;102019.34;;;19.47
64296;BMP280;51082;38.236;15.432;2023-12-04T12:41:01;102017.72;;;19.46
64296;BMP280;51082;38.236;15.432;2023-12-04T12:42:03;102009.53;;;19.47
64296;BMP280;51082;38.236;15.432;2023-12-04T12:43:09;102009.31;;;19.49
64296;BMP280;51082;38.236;15.432;2023-12-04T12:44:10;102005.66;;;19.50
64296;BMP280;51082;38.236;15.432;2023-12-04T12:45:13;102009.94;;;19.51
64296;BMP280;51082;38.236;15.432;2023-12-04T12:46:14;102010.78;;;19.45
64296;BMP280;51082;38.236;15.432;2023-12-04T12:47:17;102011.25;;;19.42
64296;BMP280;51082;38.236;15.432;2023-12-04T12:48:19;102012.84;;;19.42
64296;BMP280;51082;38.236;15.432;2023-12-04T12:49:21;102009.78;;;19.46
64296;BMP280;51082;38.236;15.432;2023-12-04T12:50:23;102012.84;;;19.42
64296;BMP280;51082;38.236;15.432;2023-12-04T12:51:26;102009.78;;;19.46
64296;BMP280;51082;38.236;15.432;2023-12-04T12:52:29;102000.44;;;19.43
64296;BMP280;51082;38.236;15.432;2023-12-04T12:53:32;102004.06;;;19.49
64296;BMP280;51082;38.236;15.432;2023-12-04T12:54:36;102007.50;;;19.49
64296;BMP280;51082;38.236;15.432;2023-12-04T12:55:38;102003.84;;;19.50
64296;BMP280;51082;38.236;15.432;2023-12-04T12:56:41;101998.56;;;19.50
64296;BMP280;51082;38.236;15.432;2023-12-04T12:57:42;101995.31;;;19.48
64296;BMP280;51082;38.236;15.432;2023-12-04T12:58:46;101992.69;;;19.48
64296;BMP280;51082;38.236;15.432;2023-12-04T12:59:48;102000.38;;;19.50
64296;BMP280;51082;38.236;15.432;2023-12-04T13:00:51;102000.97;;;19.52
64296;BMP280;51082;38.236;15.432;2023-12-04T13:01:53;101993.03;;;19.52
64296;BMP280;51082;38.236;15.432;2023-12-04T13:02:54;101992.94;;;19.47
64296;BMP280;51082;38.236;15.432;2023-12-04T13:03:57;101990.47;;;19.45
64296;BMP280;51082;38.236;15.432;2023-12-04T13:04:58;101989.66;;;19.45
64296;BMP280;51082;38.236;15.432;2023-12-04T13:06:00;101992.94;;;19.47
64296;BMP280;51082;38.236;15.432;2023-12-04T13:07:03;101996.13;;;19.49
64296;BMP280;51082;38.236;15.432;2023-12-04T13:08:06;101991.66;;;19.49
64296;BMP280;51082;38.236;15.432;2023-12-04T13:09:09;101995.69;;;19.52
64296;BMP280;51082;38.236;15.432;2023-12-04T13:10:18;101991.66;;;19.49
64296;BMP280;51082;38.236;15.432;2023-12-04T13:11:21;101997.75;;;19.50
64296;BMP280;51082;38.236;15.432;2023-12-04T13:12:22;101986.59;;;19.48
64296;BMP280;51082;38.236;15.432;2023-12-04T13:13:25;101987.63;;;19.47
64296;BMP280;51082;38.236;15.432;2023-12-04T13:14:29;101987.25;;;19.43
64296;BMP280;51082;38.236;15.432;2023-12-04T13:15:31;101989.66;;;19.45
64296;BMP280;51082;38.236;15.432;2023-12-04T13:16:33;101991.31;;;19.46
64296;BMP280;51082;38.236;15.432;2023-12-04T13:17:36;101987.63;;;19.47
64296;BMP280;51082;38.236;15.432;2023-12-04T13:18:38;101985.56;;;19.49
64296;BMP280;51082;38.236;15.432;2023-12-04T13:19:40;101982.78;;;19.44
64296;BMP280;51082;38.236;15.432;2023-12-04T13:20:42;101980.88;;;19.32
64296;BMP280;51082;38.236;15.432;2023-12-04T13:21:44;101977.06;;;19.28
64296;BMP280;51082;38.236;15.432;2023-12-04T13:22:46;101977.63;;;19.30
64296;BMP280;51082;38.236;15.432;2023-12-04T13:23:48;101973.50;;;19.34
64296;BMP280;51082;38.236;15.432;2023-12-04T13:24:50;101974.69;;;19.38
64296;BMP280;51082;38.236;15.432;2023-12-04T13:25:52;101979.97;;;19.38
64296;BMP280;51082;38.236;15.432;2023-12-04T13:26:55;101975.13;;;19.35
64296;BMP280;51082;38.236;15.432;2023-12-04T13:27:58;101970.31;;;19.32
64296;BMP280;51082;38.236;15.432;2023-12-04T13:29:00;101966.63;;;19.33
64296;BMP280;51082;38.236;15.432;2023-12-04T13:30:05;101965.59;;;19.34
64296;BMP280;51082;38.236;15.432;2023-12-04T13:31:07;101966.41;;;19.35
64296;BMP280;51082;38.236;15.432;2023-12-04T13:32:09;101962.16;;;19.34
64296;BMP280;51082;38.236;15.432;2023-12-04T13:33:11;101962.41;;;19.32
64296;BMP280;51082;38.236;15.432;2023-12-04T13:34:13;101959.38;;;19.29
64296;BMP280;51082;38.236;15.432;2023-12-04T13:35:14;101952.03;;;19.31
64296;BMP280;51082;38.236;15.432;2023-12-04T13:36:17;101947.53;;;19.31
64296;BMP280;51082;38.236;15.432;2023-12-04T13:37:18;101950.78;;;19.33
64296;BMP280;51082;38.236;15.432;2023-12-04T13:38:21;101959.91;;;19.37
64296;BMP280;51082;38.236;15.432;2023-12-04T13:39:22;101950.19;;;19.31
64296;BMP280;51082;38.236;15.432;2023-12-04T13:40:37;101952.47;;;19.28
64296;BMP280;51082;38.236;15.432;2023-12-04T13:41:40;101957.16;;;19.26
64296;BMP280;51082;38.236;15.432;2023-12-04T13:42:59;101959.56;;;19.27
64296;BMP280;51082;38.236;15.432;2023-12-04T13:44:19;101959.94;;;19.31
64296;BMP280;51082;38.236;15.432;2023-12-04T13:45:23;101958.09;;;19.31
64296;BMP280;51082;38.236;15.432;2023-12-04T13:46:25;101954.88;;;19.29
64296;BMP280;51082;38.236;15.432;2023-12-04T13:47:30;101956.59;;;19.24
64296;BMP280;51082;38.236;15.432;2023-12-04T13:48:32;101956.13;;;19.27
64296;BMP280;51082;38.236;15.432;2023-12-04T13:49:34;101950.41;;;19.30
64296;BMP280;51082;38.236;15.432;2023-12-04T13:50:36;101952.03;;;19.31
64296;BMP280;51082;38.236;15.432;2023-12-04T13:51:39;101958.03;;;19.20
64296;BMP280;51082;38.236;15.432;2023-12-04T13:52:41;101962.66;;;19.24
64296;BMP280;51082;38.236;15.432;2023-12-04T13:53:44;101954.59;;;19.19
64296;BMP280;51082;38.236;15.432;2023-12-04T13:54:47;101958.28;;;19.12
64296;BMP280;51082;38.236;15.432;2023-12-04T13:55:50;101959.09;;;19.12
64296;BMP280;51082;38.236;15.432;2023-12-04T13:57:12;101956.56;;;19.05
64296;BMP280;51082;38.236;15.432;2023-12-04T13:58:22;101952.22;;;19.11
64296;BMP280;51082;38.236;15.432;2023-12-04T13:59:39;101957.09;;;19.14
64296;BMP280;51082;38.236;15.432;2023-12-04T14:00:42;101958.25;;;19.18
64296;BMP280;51082;38.236;15.432;2023-12-04T14:01:45;101955.16;;;19.21
64296;BMP280;51082;38.236;15.432;2023-12-04T14:02:46;101955.78;;;19.23
64296;BMP280;51082;38.236;15.432;2023-12-04T14:03:49;101954.72;;;19.24
64296;BMP280;51082;38.236;15.432;2023-12-04T14:04:50;101957.59;;;19.23
64296;BMP280;51082;38.236;15.432;2023-12-04T14:05:53;101950.53;;;19.17
64296;BMP280;51082;38.236;15.432;2023-12-04T14:06:55;101952.22;;;19.11
64296;BMP280;51082;38.236;15.432;2023-12-04T14:07:58;101953.44;;;19.15
64296;BMP280;51082;38.236;15.432;2023-12-04T14:08:59;101956.63;;;19.17
64296;BMP280;51082;38.236;15.432;2023-12-04T14:10:02;101951.97;;;19.19
64296;BMP280;51082;38.236;15.432;2023-12-04T14:11:05;101956.19;;;19.20
64296;BMP280;51082;38.236;15.432;2023-12-04T14:12:08;101962.53;;;19.19
64296;BMP280;51082;38.236;15.432;2023-12-04T14:13:09;101958.69;;;19.15
64296;BMP280;51082;38.236;15.432;2023-12-04T14:14:12;101961.72;;;19.19
64296;BMP280;51082;38.236;15.432;2023-12-04T14:15:14;101956.63;;;19.17
64296;BMP280;51082;38.236;15.432;2023-12-04T14:16:18;101955.41;;;19.20
64296;BMP280;51082;38.236;15.432;2023-12-04T14:17:19;101957.81;;;19.21
64296;BMP280;51082;38.236;15.432;2023-12-04T14:18:23;101957.00;;;19.21
64296;BMP280;51082;38.236;15.432;2023-12-04T14:19:24;101962.53;;;19.19
64296;BMP280;51082;38.236;15.432;2023-12-04T14:20:27;101956.19;;;19.20
64296;BMP280;51082;38.236;15.432;2023-12-04T14:21:28;101957.81;;;19.21
64296;BMP280;51082;38.236;15.432;2023-12-04T14:22:31;101959.41;;;19.22
64296;BMP280;51082;38.236;15.432;2023-12-04T14:23:32;101964.25;;;19.25
64296;BMP280;51082;38.236;15.432;2023-12-04T14:24:34;101960.59;;;19.26
64296;BMP280;51082;38.236;15.432;2023-12-04T14:25:38;101960.28;;;19.16
64296;BMP280;51082;38.236;15.432;2023-12-04T14:26:40;101945.03;;;19.18
64296;BMP280;51082;38.236;15.432;2023-12-04T14:27:41;101954.59;;;19.19
64296;BMP280;51082;38.236;15.432;2023-12-04T14:28:45;101963.06;;;19.21
64296;BMP280;51082;38.236;15.432;2023-12-04T14:29:47;101964.09;;;19.20
64296;BMP280;51082;38.236;15.432;2023-12-04T14:30:50;101964.91;;;19.21
64296;BMP280;51082;38.236;15.432;2023-12-04T14:31:53;101963.06;;;19.21
64296;BMP280;51082;38.236;15.432;2023-12-04T14:32:55;101972.44;;;19.24
64296;BMP280;51082;38.236;15.432;2023-12-04T14:33:57;101963.97;;;19.15
64296;BMP280;51082;38.236;15.432;2023-12-04T14:34:59;101962.66;;;19.06
64296;BMP280;51082;38.236;15.432;2023-12-04T14:36:01;101967.31;;;19.04
64296;BMP280;51082;38.236;15.432;2023-12-04T14:37:03;101962.81;;;19.04
64296;BMP280;51082;38.236;15.432;2023-12-04T14:38:06;101961.44;;;19.02
64296;BMP280;51082;38.236;15.432;2023-12-04T14:39:07;101964.47;;;19.05
64296;BMP280;51082;38.236;15.432;2023-12-04T14:40:12;101965.13;;;19.01
64296;BMP280;51082;38.236;15.432;2023-12-04T14:41:13;101966.13;;;19.00
64296;BMP280;51082;38.236;15.432;2023-12-04T14:42:17;101966.13;;;19.00
64296;BMP280;51082;38.236;15.432;2023-12-04T14:43:18;101962.03;;;19.04
64296;BMP280;51082;38.236;15.432;2023-12-04T14:44:20;101966.47;;;19.10
64296;BMP280;51082;38.236;15.432;2023-12-04T14:45:22;101969.25;;;19.15
64296;BMP280;51082;38.236;15.432;2023-12-04T14:46:24;101969.38;;;19.20
64296;BMP280;51082;38.236;15.432;2023-12-04T14:47:27;101959.41;;;19.22
64296;BMP280;51082;38.236;15.432;2023-12-04T14:48:29;101965.88;;;19.26
64296;BMP280;51082;38.236;15.432;2023-12-04T14:49:31;101961.22;;;19.28
64296;BMP280;51082;38.236;15.432;2023-12-04T14:50:33;101964.41;;;19.30
64296;BMP280;51082;38.236;15.432;2023-12-04T14:51:36;101971.91;;;19.33
64296;BMP280;51082;38.236;15.432;2023-12-04T14:52:38;101964.78;;;19.34
64296;BMP280;51082;38.236;15.432;2023-12-04T14:53:47;101967.22;;;19.35
64296;BMP280;51082;38.236;15.432;2023-12-04T14:54:51;101972.31;;;19.37
64296;BMP280;51082;38.236;15.432;2023-12-04T14:56:13;101966.22;;;19.36
64296;BMP280;51082;38.236;15.432;2023-12-04T14:57:32;101962.53;;;19.37
64296;BMP280;51082;38.236;15.432;2023-12-04T14:58:56;101969.41;;;19.38
64296;BMP280;51082;38.236;15.432;2023-12-04T15:00:22;101967.81;;;19.37
64296;BMP280;51082;38.236;15.432;2023-12-04T15:01:57;101956.06;;;19.33
64296;BMP280;51082;38.236;15.432;2023-12-04T15:03:18;101961.75;;;19.37
64296;BMP280;51082;38.236;15.432;2023-12-04T15:04:57;101955.41;;;19.38
64296;BMP280;51082;38.236;15.432;2023-12-04T15:06:17;101957.66;;;19.34
64296;BMP280;51082;38.236;15.432;2023-12-04T15:07:41;101958.63;;;19.40
64296;BMP280;51082;38.236;15.432;2023-12-04T15:09:26;101964.94;;;19.39
64296;BMP280;51082;38.236;15.432;2023-12-04T15:11:07;101958.03;;;19.38
64296;BMP280;51082;38.236;15.432;2023-12-04T15:12:36;101965.19;;;19.37
64296;BMP280;51082;38.236;15.432;2023-12-04T15:14:01;101965.19;;;19.37
64296;BMP280;51082;38.236;15.432;2023-12-04T15:15:11;101965.19;;;19.37
64296;BMP280;51082;38.236;15.432;2023-12-04T15:16:26;101964.13;;;19.38
64296;BMP280;51082;38.236;15.432;2023-12-04T15:17:34;101965.75;;;19.39
64296;BMP280;51082;38.236;15.432;2023-12-04T15:18:50;101961.28;;;19.40
64296;BMP280;51082;38.236;15.432;2023-12-04T15:20:07;101967.34;;;19.40
64296;BMP280;51082;38.236;15.432;2023-12-04T15:21:32;101971.84;;;19.40
64296;BMP280;51082;38.236;15.432;2023-12-04T15:22:35;101977.13;;;19.40
64296;BMP280;51082;38.236;15.432;2023-12-04T15:23:37;101976.31;;;19.39
64296;BMP280;51082;38.236;15.432;2023-12-04T15:24:40;101974.69;;;19.38
64296;BMP280;51082;38.236;15.432;2023-12-04T15:25:42;101981.81;;;19.38
64296;BMP280;51082;38.236;15.432;2023-12-04T15:26:43;101973.09;;;19.37
64296;BMP280;51082;38.236;15.432;2023-12-04T15:27:46;101978.38;;;19.37
64296;BMP280;51082;38.236;15.432;2023-12-04T15:28:48;101974.13;;;19.36
64296;BMP280;51082;38.236;15.432;2023-12-04T15:29:49;101973.09;;;19.37
64296;BMP280;51082;38.236;15.432;2023-12-04T15:30:52;101979.97;;;19.38
64296;BMP280;51082;38.236;15.432;2023-12-04T15:31:54;101976.31;;;19.39
64296;BMP280;51082;38.236;15.432;2023-12-04T15:32:55;101972.06;;;19.38
64296;BMP280;51082;38.236;15.432;2023-12-04T15:33:58;101978.94;;;19.39
64296;BMP280;51082;38.236;15.432;2023-12-04T15:35:00;101982.41;;;19.40
64296;BMP280;51082;38.236;15.432;2023-12-04T15:36:02;101984.84;;;19.42
64296;BMP280;51082;38.236;15.432;2023-12-04T15:37:04;101979.56;;;19.42
64296;BMP280;51082;38.236;15.432;2023-12-04T15:38:07;101977.91;;;19.40
64296;BMP280;51082;38.236;15.432;2023-12-04T15:39:08;101974.47;;;19.40
64296;BMP280;51082;38.236;15.432;2023-12-04T15:40:10;101976.31;;;19.39
64296;BMP280;51082;38.236;15.432;2023-12-04T15:41:13;101966.56;;;19.40
64296;BMP280;51082;38.236;15.432;2023-12-04T15:42:15;101968.38;;;19.39
64296;BMP280;51082;38.236;15.432;2023-12-04T15:43:16;101971.84;;;19.40
64296;BMP280;51082;38.236;15.432;2023-12-04T15:44:19;101976.31;;;19.39
64296;BMP280;51082;38.236;15.432;2023-12-04T15:45:22;101972.06;;;19.38
64296;BMP280;51082;38.236;15.432;2023-12-04T15:46:23;101978.38;;;19.37
64296;BMP280;51082;38.236;15.432;2023-12-04T15:47:27;101977.34;;;19.38
64296;BMP280;51082;38.236;15.432;2023-12-04T15:48:29;101972.06;;;19.38
64296;BMP280;51082;38.236;15.432;2023-12-04T15:49:32;101973.09;;;19.37
64296;BMP280;51082;38.236;15.432;2023-12-04T15:50:35;101970.47;;;19.37
64296;BMP280;51082;38.236;15.432;2023-12-04T15:51:37;101968.59;;;19.38
64296;BMP280;51082;38.236;15.432;2023-12-04T15:52:38;101971.25;;;19.38
64296;BMP280;51082;38.236;15.432;2023-12-04T15:53:42;101974.69;;;19.38
64296;BMP280;51082;38.236;15.432;2023-12-04T15:54:45;101977.34;;;19.38
64296;BMP280;51082;38.236;15.432;2023-12-04T15:55:47;101973.88;;;19.38
64296;BMP280;51082;38.236;15.432;2023-12-04T15:56:49;101962.53;;;19.37
64296;BMP280;51082;38.236;15.432;2023-12-04T15:57:51;101965.19;;;19.37
64296;BMP280;51082;38.236;15.432;2023-12-04T15:58:55;101962.53;;;19.37
64296;BMP280;51082;38.236;15.432;2023-12-04T15:59:58;101956.88;;;19.34
64296;BMP280;51082;38.236;15.432;2023-12-04T16:01:00;101962.94;;;19.34
64296;BMP280;51082;38.236;15.432;2023-12-04T16:02:02;101960.31;;;19.34
64296;BMP280;51082;38.236;15.432;2023-12-04T16:03:03;101969.25;;;19.33
64296;BMP280;51082;38.236;15.432;2023-12-04T16:04:05;101963.38;;;19.31
64296;BMP280;51082;38.236;15.432;2023-12-04T16:05:09;101967.06;;;19.30
64296;BMP280;51082;38.236;15.432;2023-12-04T16:06:12;101952.81;;;19.31
64296;BMP280;51082;38.236;15.432;2023-12-04T16:07:13;101952.81;;;19.31
64296;BMP280;51082;38.236;15.432;2023-12-04T16:08:16;101952.47;;;19.28